sensor_id;sensor_type;location;lat;lon;timestamp;pressure;altitude;pressure_sealevel;temperature;humidity
49178;BME280;35016;55.674;37.468;2022-12-10T00:01:35;98909.00;;;-1.75;70.97
49178;BME280;35016;55.674;37.468;2022-12-10T00:04:03;98914.50;;;-1.76;70.74
49178;BME280;35016;55.674;37.468;2022-12-10T00:06:33;98892.63;;;-1.78;70.96
49178;BME280;35016;55.674;37.468;2022-12-10T00:09:01;98898.94;;;-1.79;70.92
49178;BME280;35016;55.674;37.468;2022-12-10T00:11:29;98902.22;;;-1.77;70.94
49178;BME280;35016;55.674;37.468;2022-12-10T00:13:57;98925.94;;;-1.76;71.14
49178;BME280;35016;55.674;37.468;2022-12-10T00:16:26;98909.38;;;-1.78;71.38
49178;BME280;35016;55.674;37.468;2022-12-10T00:18:55;98887.69;;;-1.81;71.06
49178;BME280;35016;55.674;37.468;2022-12-10T00:21:26;98887.09;;;-1.77;71.34
49178;BME280;35016;55.674;37.468;2022-12-10T00:23:54;98885.47;;;-1.78;71.48
49178;BME280;35016;55.674;37.468;2022-12-10T00:26:25;98902.91;;;-1.69;71.58
49178;BME280;35016;55.674;37.468;2022-12-10T00:28:53;98889.44;;;-1.67;71.25
49178;BME280;35016;55.674;37.468;2022-12-10T00:31:25;98882.91;;;-1.65;71.37
49178;BME280;35016;55.674;37.468;2022-12-10T00:33:55;98872.25;;;-1.71;71.38
49178;BME280;35016;55.674;37.468;2022-12-10T00:36:29;98888.88;;;-1.56;71.67
49178;BME280;35016;55.674;37.468;2022-12-10T00:38:58;98881.72;;;-1.56;71.40
49178;BME280;35016;55.674;37.468;2022-12-10T00:41:28;98882.97;;;-1.51;71.28
49178;BME280;35016;55.674;37.468;2022-12-10T00:43:55;98887.44;;;-1.52;71.33
49178;BME280;35016;55.674;37.468;2022-12-10T00:46:22;98888.47;;;-1.53;71.33
49178;BME280;35016;55.674;37.468;2022-12-10T00:48:49;98888.28;;;-1.51;71.54
49178;BME280;35016;55.674;37.468;2022-12-10T00:51:20;98889.50;;;-1.54;71.20
49178;BME280;35016;55.674;37.468;2022-12-10T00:53:49;98874.78;;;-1.50;71.25
49178;BME280;35016;55.674;37.468;2022-12-10T00:56:23;98850.22;;;-1.52;71.69
49178;BME280;35016;55.674;37.468;2022-12-10T00:58:52;98839.63;;;-1.45;71.53
49178;BME280;35016;55.674;37.468;2022-12-10T01:01:23;98849.28;;;-1.44;71.43
49178;BME280;35016;55.674;37.468;2022-12-10T01:03:54;98847.59;;;-1.45;71.56
49178;BME280;35016;55.674;37.468;2022-12-10T01:06:24;98832.66;;;-1.46;71.79
49178;BME280;35016;55.674;37.468;2022-12-10T01:08:54;98835.31;;;-1.46;71.34
49178;BME280;35016;55.674;37.468;2022-12-10T01:11:23;98858.47;;;-1.40;71.34
49178;BME280;35016;55.674;37.468;2022-12-10T01:13:51;98835.78;;;-1.36;71.30
49178;BME280;35016;55.674;37.468;2022-12-10T01:16:20;98839.06;;;-1.34;71.17
49178;BME280;35016;55.674;37.468;2022-12-10T01:18:53;98830.88;;;-1.33;71.52
49178;BME280;35016;55.674;37.468;2022-12-10T01:21:22;98835.38;;;-1.33;71.71
49178;BME280;35016;55.674;37.468;2022-12-10T01:23:51;98848.47;;;-1.32;71.63
49178;BME280;35016;55.674;37.468;2022-12-10T01:26:24;98857.69;;;-1.34;71.36
49178;BME280;35016;55.674;37.468;2022-12-10T01:28:52;98830.69;;;-1.31;71.69
49178;BME280;35016;55.674;37.468;2022-12-10T01:31:46;98821.50;;;-1.29;71.78
49178;BME280;35016;55.674;37.468;2022-12-10T01:34:17;98834.59;;;-1.27;71.27
49178;BME280;35016;55.674;37.468;2022-12-10T01:36:50;98838.69;;;-1.25;71.40
49178;BME280;35016;55.674;37.468;2022-12-10T01:39:19;98831.72;;;-1.26;71.13
49178;BME280;35016;55.674;37.468;2022-12-10T01:41:52;98832.97;;;-1.21;71.73
49178;BME280;35016;55.674;37.468;2022-12-10T01:46:52;98831.13;;;-1.21;71.29
49178;BME280;35016;55.674;37.468;2022-12-10T01:49:24;98837.25;;;-1.20;71.24
49178;BME280;35016;55.674;37.468;2022-12-10T01:51:55;98849.13;;;-1.16;71.44
49178;BME280;35016;55.674;37.468;2022-12-10T01:54:48;98856.28;;;-1.17;71.55
49178;BME280;35016;55.674;37.468;2022-12-10T01:57:23;98849.97;;;-1.16;71.44
49178;BME280;35016;55.674;37.468;2022-12-10T01:59:54;98854.09;;;-1.13;71.33
49178;BME280;35016;55.674;37.468;2022-12-10T02:10:45;98854.09;;;-1.13;71.52
49178;BME280;35016;55.674;37.468;2022-12-10T02:13:32;98846.94;;;-1.13;71.83
49178;BME280;35016;55.674;37.468;2022-12-10T02:16:12;98854.31;;;-1.08;71.53
49178;BME280;35016;55.674;37.468;2022-12-10T02:18:42;98843.03;;;-1.10;71.38
49178;BME280;35016;55.674;37.468;2022-12-10T02:21:16;98842.41;;;-1.12;71.43
49178;BME280;35016;55.674;37.468;2022-12-10T02:23:54;98839.16;;;-1.08;71.34
49178;BME280;35016;55.674;37.468;2022-12-10T02:29:27;98830.78;;;-1.05;71.13
49178;BME280;35016;55.674;37.468;2022-12-10T02:31:57;98829.94;;;-1.05;71.68
49178;BME280;35016;55.674;37.468;2022-12-10T02:34:31;98831.59;;;-1.11;71.54
49178;BME280;35016;55.674;37.468;2022-12-10T02:37:04;98839.56;;;-1.04;71.51
49178;BME280;35016;55.674;37.468;2022-12-10T02:39:36;98836.69;;;-1.09;71.55
49178;BME280;35016;55.674;37.468;2022-12-10T02:42:07;98829.94;;;-1.05;71.72
49178;BME280;35016;55.674;37.468;2022-12-10T02:44:37;98825.44;;;-1.05;71.64
49178;BME280;35016;55.674;37.468;2022-12-10T02:47:08;98820.75;;;-1.03;71.69
49178;BME280;35016;55.674;37.468;2022-12-10T02:49:40;98821.16;;;-0.99;71.63
49178;BME280;35016;55.674;37.468;2022-12-10T02:52:11;98813.78;;;-0.97;71.27
49178;BME280;35016;55.674;37.468;2022-12-10T03:05:15;98802.13;;;-0.96;71.70
49178;BME280;35016;55.674;37.468;2022-12-10T03:08:03;98800.47;;;-0.97;72.06
49178;BME280;35016;55.674;37.468;2022-12-10T03:13:06;98815.84;;;-0.93;71.68
49178;BME280;35016;55.674;37.468;2022-12-10T03:15:37;98819.53;;;-0.94;71.76
49178;BME280;35016;55.674;37.468;2022-12-10T03:18:07;98810.94;;;-0.96;71.58
49178;BME280;35016;55.674;37.468;2022-12-10T03:20:39;98815.22;;;-0.88;71.72
49178;BME280;35016;55.674;37.468;2022-12-10T03:23:09;98813.22;;;-0.86;71.81
49178;BME280;35016;55.674;37.468;2022-12-10T03:25:37;98818.13;;;-0.83;72.00
49178;BME280;35016;55.674;37.468;2022-12-10T03:28:07;98806.88;;;-0.85;71.59
49178;BME280;35016;55.674;37.468;2022-12-10T03:30:36;98821.19;;;-0.79;72.08
49178;BME280;35016;55.674;37.468;2022-12-10T03:33:04;98810.75;;;-0.81;71.78
49178;BME280;35016;55.674;37.468;2022-12-10T03:35:32;98832.25;;;-0.76;71.95
49178;BME280;35016;55.674;37.468;2022-12-10T03:38:00;98813.22;;;-0.73;71.56
49178;BME280;35016;55.674;37.468;2022-12-10T03:40:27;98812.59;;;-0.75;71.59
49178;BME280;35016;55.674;37.468;2022-12-10T03:42:55;98829.38;;;-0.68;71.53
49178;BME280;35016;55.674;37.468;2022-12-10T03:45:22;98815.06;;;-0.67;71.91
49178;BME280;35016;55.674;37.468;2022-12-10T03:48:14;98816.06;;;-0.68;71.80
49178;BME280;35016;55.674;37.468;2022-12-10T03:50:41;98815.66;;;-0.65;71.60
49178;BME280;35016;55.674;37.468;2022-12-10T03:53:08;98825.91;;;-0.62;71.57
49178;BME280;35016;55.674;37.468;2022-12-10T03:55:37;98818.31;;;-0.65;71.70
49178;BME280;35016;55.674;37.468;2022-12-10T03:58:04;98810.13;;;-0.63;71.31
49178;BME280;35016;55.674;37.468;2022-12-10T04:00:31;98815.06;;;-0.60;71.70
49178;BME280;35016;55.674;37.468;2022-12-10T04:02:58;98818.97;;;-0.56;71.23
49178;BME280;35016;55.674;37.468;2022-12-10T04:05:26;98805.22;;;-0.59;71.52
49178;BME280;35016;55.674;37.468;2022-12-10T04:07:53;98808.53;;;-0.57;71.34
49178;BME280;35016;55.674;37.468;2022-12-10T04:10:20;98809.97;;;-0.55;71.18
49178;BME280;35016;55.674;37.468;2022-12-10T04:12:47;98812.00;;;-0.57;71.28
49178;BME280;35016;55.674;37.468;2022-12-10T04:15:38;98803.00;;;-0.56;71.16
49178;BME280;35016;55.674;37.468;2022-12-10T04:18:28;98813.03;;;-0.51;71.11
49178;BME280;35016;55.674;37.468;2022-12-10T04:20:55;98816.72;;;-0.52;71.01
49178;BME280;35016;55.674;37.468;2022-12-10T04:23:41;98823.69;;;-0.51;71.26
49178;BME280;35016;55.674;37.468;2022-12-10T04:26:27;98836.59;;;-0.48;71.12
49178;BME280;35016;55.674;37.468;2022-12-10T04:29:12;98820.00;;;-0.50;71.25
49178;BME280;35016;55.674;37.468;2022-12-10T04:31:39;98819.56;;;-0.47;71.02
49178;BME280;35016;55.674;37.468;2022-12-10T04:34:06;98835.56;;;-0.47;71.25
49178;BME280;35016;55.674;37.468;2022-12-10T04:36:33;98821.22;;;-0.46;70.99
49178;BME280;35016;55.674;37.468;2022-12-10T04:39:00;98815.06;;;-0.47;71.05
49178;BME280;35016;55.674;37.468;2022-12-10T04:41:28;98817.13;;;-0.49;70.95
49178;BME280;35016;55.674;37.468;2022-12-10T04:43:55;98830.84;;;-0.45;71.30
49178;BME280;35016;55.674;37.468;2022-12-10T04:46:22;98814.88;;;-0.45;71.01
49178;BME280;35016;55.674;37.468;2022-12-10T04:48:50;98799.50;;;-0.43;71.11
49178;BME280;35016;55.674;37.468;2022-12-10T04:51:17;98806.88;;;-0.52;71.17
49178;BME280;35016;55.674;37.468;2022-12-10T04:53:43;98801.13;;;-0.42;71.15
49178;BME280;35016;55.674;37.468;2022-12-10T04:56:10;98797.66;;;-0.43;70.92
49178;BME280;35016;55.674;37.468;2022-12-10T04:58:37;98802.16;;;-0.43;70.92
49178;BME280;35016;55.674;37.468;2022-12-10T05:01:08;98802.78;;;-0.41;70.88
49178;BME280;35016;55.674;37.468;2022-12-10T05:03:36;98775.13;;;-0.53;71.15
49178;BME280;35016;55.674;37.468;2022-12-10T05:06:05;98805.00;;;-0.38;71.29
49178;BME280;35016;55.674;37.468;2022-12-10T05:08:33;98793.97;;;-0.42;70.88
49178;BME280;35016;55.674;37.468;2022-12-10T05:11:02;98798.25;;;-0.41;71.10
49178;BME280;35016;55.674;37.468;2022-12-10T05:13:31;98796.63;;;-0.35;70.98
49178;BME280;35016;55.674;37.468;2022-12-10T05:16:03;98807.06;;;-0.34;71.12
49178;BME280;35016;55.674;37.468;2022-12-10T05:18:34;98807.47;;;-0.30;70.62
49178;BME280;35016;55.674;37.468;2022-12-10T05:21:03;98808.50;;;-0.31;70.98
49178;BME280;35016;55.674;37.468;2022-12-10T05:23:31;98813.00;;;-0.32;70.88
49178;BME280;35016;55.674;37.468;2022-12-10T05:28:30;98834.72;;;-0.35;71.34
49178;BME280;35016;55.674;37.468;2022-12-10T05:30:58;98814.63;;;-0.31;70.61
49178;BME280;35016;55.674;37.468;2022-12-10T05:33:27;98809.09;;;-0.29;70.79
49178;BME280;35016;55.674;37.468;2022-12-10T05:35:59;98818.34;;;-0.25;70.73
49178;BME280;35016;55.674;37.468;2022-12-10T05:38:29;98814.66;;;-0.24;70.92
49178;BME280;35016;55.674;37.468;2022-12-10T05:41:09;98814.44;;;-0.22;70.99
49178;BME280;35016;55.674;37.468;2022-12-10T05:43:37;98811.38;;;-0.26;71.03
49178;BME280;35016;55.674;37.468;2022-12-10T05:46:07;98813.22;;;-0.20;70.92
49178;BME280;35016;55.674;37.468;2022-12-10T05:48:34;98810.34;;;-0.18;70.74
49178;BME280;35016;55.674;37.468;2022-12-10T05:51:07;98816.69;;;-0.19;70.83
49178;BME280;35016;55.674;37.468;2022-12-10T05:53:35;98808.69;;;-0.13;70.99
49178;BME280;35016;55.674;37.468;2022-12-10T05:56:28;98799.88;;;-0.13;70.64
49178;BME280;35016;55.674;37.468;2022-12-10T05:58:59;98773.47;;;-0.35;70.78
49178;BME280;35016;55.674;37.468;2022-12-10T06:01:32;98800.72;;;-0.19;70.66
49178;BME280;35016;55.674;37.468;2022-12-10T06:04:01;98808.69;;;-0.13;70.38
49178;BME280;35016;55.674;37.468;2022-12-10T06:06:35;98794.16;;;-0.30;70.47
49178;BME280;35016;55.674;37.468;2022-12-10T06:09:05;98786.38;;;-0.25;70.44
49178;BME280;35016;55.674;37.468;2022-12-10T06:11:33;98801.28;;;-0.11;70.79
49178;BME280;35016;55.674;37.468;2022-12-10T06:14:00;98800.06;;;-0.15;70.87
49178;BME280;35016;55.674;37.468;2022-12-10T06:16:29;98809.91;;;-0.15;70.90
49178;BME280;35016;55.674;37.468;2022-12-10T06:18:58;98789.63;;;-0.10;70.86
49178;BME280;35016;55.674;37.468;2022-12-10T06:21:30;98783.06;;;-0.14;71.06
49178;BME280;35016;55.674;37.468;2022-12-10T06:24:17;98787.97;;;0.03;70.57
49178;BME280;35016;55.674;37.468;2022-12-10T06:26:45;98788.16;;;0.01;70.83
49178;BME280;35016;55.674;37.468;2022-12-10T06:29:12;98786.50;;;0.07;70.40
49178;BME280;35016;55.674;37.468;2022-12-10T06:31:39;98794.09;;;0.10;70.60
49178;BME280;35016;55.674;37.468;2022-12-10T06:34:06;98792.41;;;0.15;70.76
49178;BME280;35016;55.674;37.468;2022-12-10T06:36:34;98787.50;;;0.12;70.63
49178;BME280;35016;55.674;37.468;2022-12-10T06:39:02;98785.22;;;0.22;70.58
49178;BME280;35016;55.674;37.468;2022-12-10T06:41:29;98784.78;;;0.25;70.48
49178;BME280;35016;55.674;37.468;2022-12-10T06:43:56;98792.38;;;0.28;70.34
49178;BME280;35016;55.674;37.468;2022-12-10T06:46:27;98793.22;;;0.29;70.26
49178;BME280;35016;55.674;37.468;2022-12-10T06:48:55;98798.13;;;0.32;70.16
49178;BME280;35016;55.674;37.468;2022-12-10T06:51:23;98789.53;;;0.30;70.38
49178;BME280;35016;55.674;37.468;2022-12-10T06:53:51;98782.31;;;0.37;70.14
49178;BME280;35016;55.674;37.468;2022-12-10T06:56:18;98790.50;;;0.42;70.29
49178;BME280;35016;55.674;37.468;2022-12-10T06:58:46;98795.22;;;0.40;70.25
49178;BME280;35016;55.674;37.468;2022-12-10T07:01:23;98788.00;;;0.47;70.09
49178;BME280;35016;55.674;37.468;2022-12-10T07:03:56;98784.31;;;0.48;70.45
49178;BME280;35016;55.674;37.468;2022-12-10T07:06:24;98784.69;;;0.52;70.07
49178;BME280;35016;55.674;37.468;2022-12-10T07:08:52;98787.97;;;0.54;70.59
49178;BME280;35016;55.674;37.468;2022-12-10T07:11:24;98786.97;;;0.48;70.28
49178;BME280;35016;55.674;37.468;2022-12-10T07:14:06;98801.09;;;0.55;70.60
49178;BME280;35016;55.674;37.468;2022-12-10T07:16:37;98768.28;;;0.48;70.27
49178;BME280;35016;55.674;37.468;2022-12-10T07:19:04;98775.13;;;0.38;70.45
49178;BME280;35016;55.674;37.468;2022-12-10T07:21:39;98785.53;;;0.46;70.11
49178;BME280;35016;55.674;37.468;2022-12-10T07:24:17;98800.69;;;0.58;70.47
49178;BME280;35016;55.674;37.468;2022-12-10T07:26:49;98801.09;;;0.55;70.17
49178;BME280;35016;55.674;37.468;2022-12-10T07:29:21;98810.53;;;0.58;70.36
49178;BME280;35016;55.674;37.468;2022-12-10T07:31:55;98804.19;;;0.59;70.65
49178;BME280;35016;55.674;37.468;2022-12-10T07:34:25;98791.47;;;0.48;70.25
49178;BME280;35016;55.674;37.468;2022-12-10T07:36:58;98771.81;;;0.42;70.49
49178;BME280;35016;55.674;37.468;2022-12-10T07:39:25;98804.78;;;0.61;70.37
49178;BME280;35016;55.674;37.468;2022-12-10T07:41:55;98792.03;;;0.63;70.73
49178;BME280;35016;55.674;37.468;2022-12-10T07:44:26;98765.81;;;0.53;70.23
49178;BME280;35016;55.674;37.468;2022-12-10T07:46:59;98782.63;;;0.54;70.46
49178;BME280;35016;55.674;37.468;2022-12-10T07:49:32;98787.91;;;0.67;70.39
49178;BME280;35016;55.674;37.468;2022-12-10T07:52:03;98776.63;;;0.65;70.57
49178;BME280;35016;55.674;37.468;2022-12-10T07:54:32;98788.31;;;0.71;70.33
49178;BME280;35016;55.674;37.468;2022-12-10T07:57:02;98773.88;;;0.78;70.52
49178;BME280;35016;55.674;37.468;2022-12-10T07:59:32;98796.66;;;0.81;70.18
49178;BME280;35016;55.674;37.468;2022-12-10T08:02:12;98770.78;;;0.88;70.53
49178;BME280;35016;55.674;37.468;2022-12-10T08:04:41;98773.00;;;0.91;70.40
49178;BME280;35016;55.674;37.468;2022-12-10T08:07:10;98758.84;;;0.90;69.86
49178;BME280;35016;55.674;37.468;2022-12-10T08:09:41;98782.16;;;1.02;70.36
49178;BME280;35016;55.674;37.468;2022-12-10T08:12:29;98786.47;;;1.03;70.19
49178;BME280;35016;55.674;37.468;2022-12-10T08:15:08;98780.09;;;1.04;70.57
49178;BME280;35016;55.674;37.468;2022-12-10T08:18:29;98767.84;;;0.96;70.27
49178;BME280;35016;55.674;37.468;2022-12-10T08:21:38;98770.44;;;1.03;70.27
49178;BME280;35016;55.674;37.468;2022-12-10T08:24:05;98774.38;;;1.00;69.82
49178;BME280;35016;55.674;37.468;2022-12-10T08:26:41;98761.84;;;1.01;69.85
49178;BME280;35016;55.674;37.468;2022-12-10T08:29:19;98765.94;;;1.03;70.20
49178;BME280;35016;55.674;37.468;2022-12-10T08:31:50;98779.59;;;1.13;70.12
49178;BME280;35016;55.674;37.468;2022-12-10T08:34:21;98741.53;;;1.00;70.44
49178;BME280;35016;55.674;37.468;2022-12-10T08:36:52;98769.06;;;1.25;70.04
49178;BME280;35016;55.674;37.468;2022-12-10T08:39:28;98743.84;;;1.21;70.18
49178;BME280;35016;55.674;37.468;2022-12-10T08:42:05;98738.72;;;1.19;69.96
49178;BME280;35016;55.674;37.468;2022-12-10T08:44:33;98773.31;;;1.33;69.82
49178;BME280;35016;55.674;37.468;2022-12-10T08:47:01;98756.03;;;1.35;69.66
49178;BME280;35016;55.674;37.468;2022-12-10T08:49:29;98763.16;;;1.41;69.62
49178;BME280;35016;55.674;37.468;2022-12-10T08:51:56;98761.91;;;1.44;69.46
49178;BME280;35016;55.674;37.468;2022-12-10T08:54:24;98764.41;;;1.45;69.50
49178;BME280;35016;55.674;37.468;2022-12-10T08:56:52;98738.66;;;1.26;69.35
49178;BME280;35016;55.674;37.468;2022-12-10T08:59:24;98768.06;;;1.44;69.58
49178;BME280;35016;55.674;37.468;2022-12-10T09:01:53;98753.91;;;1.44;69.26
49178;BME280;35016;55.674;37.468;2022-12-10T09:04:22;98743.28;;;1.37;69.26
49178;BME280;35016;55.674;37.468;2022-12-10T09:06:50;98759.66;;;1.47;69.08
49178;BME280;35016;55.674;37.468;2022-12-10T09:09:19;98733.91;;;1.28;69.34
49178;BME280;35016;55.674;37.468;2022-12-10T09:11:49;98759.91;;;1.39;69.42
49178;BME280;35016;55.674;37.468;2022-12-10T09:14:19;98752.81;;;1.27;69.62
49178;BME280;35016;55.674;37.468;2022-12-10T09:16:48;98762.56;;;1.39;69.52
49178;BME280;35016;55.674;37.468;2022-12-10T09:19:16;98749.44;;;1.38;69.28
49178;BME280;35016;55.674;37.468;2022-12-10T09:21:47;98757.81;;;1.41;69.11
49178;BME280;35016;55.674;37.468;2022-12-10T09:24:18;98763.97;;;1.42;69.58
49178;BME280;35016;55.674;37.468;2022-12-10T09:26:48;98788.03;;;1.42;69.57
49178;BME280;35016;55.674;37.468;2022-12-10T09:29:17;98762.34;;;1.41;69.42
49178;BME280;35016;55.674;37.468;2022-12-10T09:31:44;98754.56;;;1.39;69.39
49178;BME280;35016;55.674;37.468;2022-12-10T09:34:12;98752.69;;;1.40;69.60
49178;BME280;35016;55.674;37.468;2022-12-10T09:36:39;98755.16;;;1.41;69.35
49178;BME280;35016;55.674;37.468;2022-12-10T09:39:08;98739.63;;;1.32;69.61
49178;BME280;35016;55.674;37.468;2022-12-10T09:44:31;98744.81;;;1.51;69.59
49178;BME280;35016;55.674;37.468;2022-12-10T09:47:08;98754.72;;;1.44;69.39
49178;BME280;35016;55.674;37.468;2022-12-10T09:52:29;98740.66;;;1.55;69.12
49178;BME280;35016;55.674;37.468;2022-12-10T09:55:12;98748.81;;;1.61;69.19
49178;BME280;35016;55.674;37.468;2022-12-10T09:57:54;98742.88;;;1.59;69.07
49178;BME280;35016;55.674;37.468;2022-12-10T10:00:39;98739.19;;;1.60;69.27
49178;BME280;35016;55.674;37.468;2022-12-10T10:03:12;98751.50;;;1.61;69.42
49178;BME280;35016;55.674;37.468;2022-12-10T10:05:44;98732.56;;;1.62;68.97
49178;BME280;35016;55.674;37.468;2022-12-10T10:10:54;98734.44;;;1.62;69.44
49178;BME280;35016;55.674;37.468;2022-12-10T10:13:34;98714.06;;;1.42;69.52
49178;BME280;35016;55.674;37.468;2022-12-10T10:16:18;98730.50;;;1.64;69.65
49178;BME280;35016;55.674;37.468;2022-12-10T10:19:12;98737.47;;;1.65;69.38
49178;BME280;35016;55.674;37.468;2022-12-10T10:21:48;98728.50;;;1.60;69.34
49178;BME280;35016;55.674;37.468;2022-12-10T10:24:26;98736.94;;;1.57;69.44
49178;BME280;35016;55.674;37.468;2022-12-10T10:27:10;98711.72;;;1.52;69.49
49178;BME280;35016;55.674;37.468;2022-12-10T10:29:38;98719.50;;;1.54;69.48
49178;BME280;35016;55.674;37.468;2022-12-10T10:32:20;98712.09;;;1.56;69.41
49178;BME280;35016;55.674;37.468;2022-12-10T10:34:56;98716.03;;;1.53;69.63
49178;BME280;35016;55.674;37.468;2022-12-10T10:37:30;98715.94;;;1.60;69.84
49178;BME280;35016;55.674;37.468;2022-12-10T10:39:58;98714.09;;;1.61;69.36
49178;BME280;35016;55.674;37.468;2022-12-10T10:43:06;98703.63;;;1.59;69.77
49178;BME280;35016;55.674;37.468;2022-12-10T10:45:56;98713.19;;;1.67;69.50
49178;BME280;35016;55.674;37.468;2022-12-10T10:48:27;98700.72;;;1.61;69.60
49178;BME280;35016;55.674;37.468;2022-12-10T10:51:12;98690.28;;;1.59;69.31
49178;BME280;35016;55.674;37.468;2022-12-10T10:53:48;98674.53;;;1.51;69.65
49178;BME280;35016;55.674;37.468;2022-12-10T10:56:20;98686.09;;;1.63;69.37
49178;BME280;35016;55.674;37.468;2022-12-10T11:01:49;98672.75;;;1.63;69.53
49178;BME280;35016;55.674;37.468;2022-12-10T11:04:36;98681.59;;;1.64;69.34
49178;BME280;35016;55.674;37.468;2022-12-10T11:07:31;98676.47;;;1.62;69.64
49178;BME280;35016;55.674;37.468;2022-12-10T11:10:02;98659.09;;;1.53;69.64
49178;BME280;35016;55.674;37.468;2022-12-10T11:12:40;98671.34;;;1.61;69.78
49178;BME280;35016;55.674;37.468;2022-12-10T11:17:53;98660.50;;;1.55;70.13
49178;BME280;35016;55.674;37.468;2022-12-10T11:20:30;98655.03;;;1.50;70.13
49178;BME280;35016;55.674;37.468;2022-12-10T11:23:12;98655.97;;;1.56;69.89
49178;BME280;35016;55.674;37.468;2022-12-10T11:42:57;98645.63;;;1.41;70.29
49178;BME280;35016;55.674;37.468;2022-12-10T11:49:13;98628.78;;;1.41;70.79
49178;BME280;35016;55.674;37.468;2022-12-10T11:54:38;98628.78;;;1.41;70.08
49178;BME280;35016;55.674;37.468;2022-12-10T12:02:56;98620.19;;;1.39;70.51
49178;BME280;35016;55.674;37.468;2022-12-10T12:08:23;98597.34;;;1.24;69.99
49178;BME280;35016;55.674;37.468;2022-12-10T12:14:08;98613.28;;;1.31;70.88
49178;BME280;35016;55.674;37.468;2022-12-10T12:16:48;98600.63;;;1.27;70.56
49178;BME280;35016;55.674;37.468;2022-12-10T12:19:24;98626.50;;;1.26;70.73
49178;BME280;35016;55.674;37.468;2022-12-10T12:21:53;98603.06;;;1.28;70.53
49178;BME280;35016;55.674;37.468;2022-12-10T12:24:32;98615.97;;;1.31;70.68
49178;BME280;35016;55.674;37.468;2022-12-10T12:27:21;98602.91;;;1.23;71.12
49178;BME280;35016;55.674;37.468;2022-12-10T12:30:12;98602.09;;;1.22;71.01
49178;BME280;35016;55.674;37.468;2022-12-10T12:32:59;98590.88;;;1.14;71.07
49178;BME280;35016;55.674;37.468;2022-12-10T12:35:46;98602.09;;;1.22;71.01
49178;BME280;35016;55.674;37.468;2022-12-10T12:43:44;98628.94;;;1.28;71.03
49178;BME280;35016;55.674;37.468;2022-12-10T12:46:25;98629.16;;;1.26;71.26
49178;BME280;35016;55.674;37.468;2022-12-10T12:49:22;98605.13;;;1.26;71.45
49178;BME280;35016;55.674;37.468;2022-12-10T12:52:01;98616.41;;;1.28;71.38
49178;BME280;35016;55.674;37.468;2022-12-10T12:54:31;98606.63;;;1.22;71.09
49178;BME280;35016;55.674;37.468;2022-12-10T12:57:07;98607.59;;;1.28;71.20
49178;BME280;35016;55.674;37.468;2022-12-10T13:05:37;98608.84;;;1.25;71.38
49178;BME280;35016;55.674;37.468;2022-12-10T13:08:23;98600.38;;;1.28;71.62
49178;BME280;35016;55.674;37.468;2022-12-10T13:10:59;98605.94;;;1.27;71.21
49178;BME280;35016;55.674;37.468;2022-12-10T13:13:34;98603.06;;;1.28;71.69
49178;BME280;35016;55.674;37.468;2022-12-10T13:24:25;98597.56;;;1.23;71.49
49178;BME280;35016;55.674;37.468;2022-12-10T13:29:57;98603.88;;;1.29;72.37
49178;BME280;35016;55.674;37.468;2022-12-10T13:37:36;98595.94;;;1.22;71.47
49178;BME280;35016;55.674;37.468;2022-12-10T13:43:37;98591.41;;;1.22;72.00
49178;BME280;35016;55.674;37.468;2022-12-10T13:46:30;98591.69;;;1.14;72.05
49178;BME280;35016;55.674;37.468;2022-12-10T13:49:03;98614.25;;;1.18;71.96
49178;BME280;35016;55.674;37.468;2022-12-10T13:51:36;98609.72;;;1.19;72.04
49178;BME280;35016;55.674;37.468;2022-12-10T14:06:08;98578.66;;;1.24;72.62
49178;BME280;35016;55.674;37.468;2022-12-10T14:08:40;98576.22;;;1.23;71.81
49178;BME280;35016;55.674;37.468;2022-12-10T14:11:37;98569.84;;;1.24;72.54
49178;BME280;35016;55.674;37.468;2022-12-10T14:14:11;98574.56;;;1.22;72.19
49178;BME280;35016;55.674;37.468;2022-12-10T14:16:40;98574.44;;;1.17;72.21
49178;BME280;35016;55.674;37.468;2022-12-10T14:19:12;98557.19;;;1.13;72.43
49178;BME280;35016;55.674;37.468;2022-12-10T14:21:47;98565.78;;;1.15;72.77
49178;BME280;35016;55.674;37.468;2022-12-10T14:24:40;98554.31;;;1.14;72.72
49178;BME280;35016;55.674;37.468;2022-12-10T14:27:16;98553.50;;;1.14;72.41
49178;BME280;35016;55.674;37.468;2022-12-10T14:29:50;98566.25;;;1.12;72.69
49178;BME280;35016;55.674;37.468;2022-12-10T14:32:23;98543.84;;;1.13;72.59
49178;BME280;35016;55.674;37.468;2022-12-10T14:34:56;98540.81;;;1.09;72.72
49178;BME280;35016;55.674;37.468;2022-12-10T14:37:29;98545.94;;;1.11;72.43
49178;BME280;35016;55.674;37.468;2022-12-10T14:40:00;98534.44;;;1.10;72.58
49178;BME280;35016;55.674;37.468;2022-12-10T14:42:28;98536.28;;;1.10;72.86
49178;BME280;35016;55.674;37.468;2022-12-10T14:44:58;98523.16;;;1.08;72.37
49178;BME280;35016;55.674;37.468;2022-12-10T14:47:37;98521.69;;;0.94;72.89
49178;BME280;35016;55.674;37.468;2022-12-10T14:50:16;98523.38;;;1.07;73.21
49178;BME280;35016;55.674;37.468;2022-12-10T14:52:51;98508.19;;;1.07;72.86
49178;BME280;35016;55.674;37.468;2022-12-10T14:55:23;98510.84;;;1.07;72.82
49178;BME280;35016;55.674;37.468;2022-12-10T14:58:00;98496.69;;;1.07;73.03
49178;BME280;35016;55.674;37.468;2022-12-10T15:00:31;98499.13;;;1.08;73.11
49178;BME280;35016;55.674;37.468;2022-12-10T15:03:08;98497.50;;;1.07;73.36
49178;BME280;35016;55.674;37.468;2022-12-10T15:05:37;98475.41;;;1.00;73.17
49178;BME280;35016;55.674;37.468;2022-12-10T15:08:17;98481.72;;;1.06;73.39
49178;BME280;35016;55.674;37.468;2022-12-10T15:10:52;98452.66;;;0.98;73.15
49178;BME280;35016;55.674;37.468;2022-12-10T15:15:54;98475.19;;;1.02;72.88
49178;BME280;35016;55.674;37.468;2022-12-10T15:18:37;98469.84;;;1.02;73.38
49178;BME280;35016;55.674;37.468;2022-12-10T15:21:20;98447.09;;;0.99;73.27
49178;BME280;35016;55.674;37.468;2022-12-10T15:23:48;98439.31;;;0.98;73.03
49178;BME280;35016;55.674;37.468;2022-12-10T15:28:46;98442.56;;;1.00;73.04
49178;BME280;35016;55.674;37.468;2022-12-10T15:34:06;98407.44;;;0.84;73.10
49178;BME280;35016;55.674;37.468;2022-12-10T15:39:21;98409.50;;;1.01;73.18